KLKV/LKV METAR and TAF weather

Enter ICAO airport designator
Station Type Date Time Source
KLKV METAR 2019/10/15 03:53 UTC NOAA

KLKV 150353Z AUTO 33006KT 10SM CLR 02/M03 A3010 RMK AO2 SLP212 T00171033 FZRANO


Station Type Date Time Source
KLKV Decoded METAR 2019/10/15 03:53 UTC NOAA

Lakeview, Lake County Airport, OR, United States (KLKV) 42-10N 120-24W
Oct 14, 2019 - 11:53 PM EDT / 2019.10.15 0353 UTC
Wind: from the NNW (330 degrees) at 7 MPH (6 KT):0
Visibility: 10 mile(s):0
Sky conditions: clear
Temperature: 35.1 F (1.7 C)
Dew Point: 26.1 F (-3.3 C)
Relative Humidity: 69%
Pressure (altimeter): 30.1 in. Hg (1019 hPa)
ob: KLKV 150353Z AUTO 33006KT 10SM CLR 02/M03 A3010 RMK AO2 SLP212 T00171033 FZRANO
cycle: 4

Station Type Date Time Source
KLKV TAF UTC NOAA

Error!

Example: see airport list